首页
METAR-TAF:

METAR-TAF

机场 :

Lahr, 德国

纬度: 48-22-09N, 经度: 007-49-40E, 海拔: 156米

当前天气观测

该预报发布于8小时和25分钟前的18:50 UTC
风速9节,风向
温度 6°C
湿度 81%
气压 1006 hPa
能见度10公里或以上
1500米以下无云,无积雨云

METAR: EDTL 131850Z 18009KT CAVOK 06/03 Q1006

时间: 04:15 (03:15 UTC)

预报

该预报发布于10小时和15分钟前的17:00 UTC
预报有效从13日的 18点(UTC)到 13日的 24点(UTC)
风速5节,风向
能见度10公里或以上
散云层高于4500英尺

TAF: EDTL 131700Z 1318/1324 19005KT 9999 SCT045

超过4000个机场的气象观测和天气预报(METAR&TAF报告)。

可查询的气象台以黄色和红色小点在地图上表示。

将鼠标移到小点上方,可查看气象台名称。

然后点击查看天气观测和预报。

如需切换地图:点击带黑十字的绿色按钮放大地图;点击带横线的绿色按钮缩小地图;或者点击绿色箭头查看邻近地区的地图。


METAR-TAF: